L53 weather

Lodi Airpark
Lodi, California, United States

Public forecast

Using degrees Fahrenheit for public forecast. Weather courtesy of forecast.io.

Closest aviation weather report (METAR) to Lodi Airpark

Closest report is Stockton Metropolitan Airport, 12.0 nm (22.2 km) SSE. Retrieved 2020/08/03 19:55 UTC (29 minutes ago):

KSCK 031955Z 30010KT 10SM CLR 34/11 A2996 RMK AO2 SLP146 T03390111

Closest aviation forecast (TAF) to Lodi Airpark

Closest forecast is Stockton Metropolitan Airport, 12.0 nm (22.2 km) SSE. Retrieved 2020/08/03 18:36 UTC (2 hours ago):

TAF KSCK 031735Z 0318/0418 30006KT P6SM SKC FM032200 28010G17KT P6SM SKC FM041200 31006KT P6SM SKC